createdAt,value
2023-07-08T00:04:01.616Z,70.52
2023-07-08T00:09:13.949Z,58.69
2023-07-08T00:14:21.728Z,55.34
2023-07-08T00:19:29.446Z,58.40
2023-07-08T00:24:37.168Z,60.52
2023-07-08T00:29:45.372Z,61.48
2023-07-08T00:34:53.115Z,68.90
2023-07-08T00:40:00.852Z,61.97
2023-07-08T00:45:33.056Z,54.70
2023-07-08T00:50:41.132Z,58.05
2023-07-08T00:55:49.200Z,60.59
2023-07-08T01:01:00.646Z,62.06
2023-07-08T01:06:08.706Z,70.04
2023-07-08T01:11:16.838Z,58.57
2023-07-08T01:16:25.476Z,55.89
2023-07-08T01:21:36.241Z,59.03
2023-07-08T01:26:47.867Z,61.13
2023-07-08T01:31:58.401Z,68.91
2023-07-08T01:37:08.790Z,57.75
2023-07-08T01:42:17.833Z,56.19
2023-07-08T01:47:26.438Z,59.56
2023-07-08T01:52:34.538Z,60.63
2023-07-08T01:57:42.516Z,64.83
2023-07-08T02:02:50.770Z,66.68
2023-07-08T02:07:59.491Z,55.91
2023-07-08T02:13:07.995Z,57.06
2023-07-08T02:18:16.444Z,60.40
2023-07-08T02:23:24.507Z,66.82
2023-07-08T02:28:32.249Z,62.28
2023-07-08T02:33:40.041Z,55.31
2023-07-08T02:38:47.796Z,58.70
2023-07-08T02:43:55.829Z,61.20
2023-07-08T02:49:03.919Z,68.55
2023-07-08T02:54:11.710Z,57.32
2023-07-08T02:59:19.456Z,56.49
2023-07-08T03:04:27.387Z,60.03
2023-07-08T03:09:35.765Z,61.20
2023-07-08T03:14:43.881Z,70.19
2023-07-08T03:19:52.141Z,59.09
2023-07-08T03:25:00.137Z,56.25
2023-07-08T03:30:10.456Z,59.24
2023-07-08T03:35:18.796Z,63.97
2023-07-08T03:40:26.866Z,66.11
2023-07-08T03:45:34.567Z,56.51
2023-07-08T03:50:44.124Z,58.04
2023-07-08T03:55:51.887Z,59.50
2023-07-08T04:00:59.809Z,61.58
2023-07-08T04:06:07.896Z,70.86
2023-07-08T04:11:18.312Z,61.30
2023-07-08T04:16:29.454Z,55.05
2023-07-08T04:21:37.740Z,57.93
2023-07-08T04:26:47.508Z,59.59
2023-07-08T04:31:55.277Z,62.35
2023-07-08T04:37:05.546Z,65.81
2023-07-08T04:42:14.254Z,56.29
2023-07-08T04:47:22.349Z,56.48
2023-07-08T04:52:30.429Z,60.57
2023-07-08T04:57:38.397Z,67.56
2023-07-08T05:02:46.195Z,61.38
2023-07-08T05:07:54.537Z,53.15
2023-07-08T05:13:04.163Z,52.94
2023-07-08T05:18:11.943Z,56.02
2023-07-08T05:23:19.728Z,59.04
2023-07-08T05:28:28.161Z,60.30
2023-07-08T05:33:35.959Z,67.51
2023-07-08T05:38:43.760Z,56.24
2023-07-08T05:43:51.688Z,55.64
2023-07-08T05:49:01.811Z,57.95
2023-07-08T05:54:10.513Z,61.11
2023-07-08T05:59:18.532Z,61.18
2023-07-08T06:04:26.336Z,60.95
2023-07-08T06:09:34.311Z,60.12
2023-07-08T06:14:42.175Z,59.78
2023-07-08T06:19:49.996Z,59.13
2023-07-08T06:24:57.687Z,57.99
2023-07-08T06:30:06.748Z,56.97
2023-07-08T06:35:14.953Z,55.67
2023-07-08T06:40:22.936Z,55.00
2023-07-08T06:45:31.044Z,54.04
2023-07-08T06:50:39.840Z,51.83
2023-07-08T06:55:49.704Z,50.80
2023-07-08T07:00:58.163Z,50.25
2023-07-08T07:06:06.133Z,49.34
2023-07-08T07:11:14.146Z,48.12
2023-07-08T07:16:22.247Z,46.33
2023-07-08T07:21:31.440Z,46.13
2023-07-08T07:26:39.186Z,44.32
2023-07-08T07:31:49.057Z,43.32
2023-07-08T07:36:58.229Z,43.46
2023-07-08T07:42:06.915Z,43.67
2023-07-08T07:47:15.499Z,42.71
2023-07-08T07:52:25.394Z,41.66
2023-07-08T07:57:33.443Z,41.06
2023-07-08T08:02:41.208Z,40.28
2023-07-08T08:07:50.225Z,39.55
2023-07-08T08:13:00.220Z,37.71
2023-07-08T08:18:07.995Z,37.20
2023-07-08T08:23:15.910Z,37.47
2023-07-08T08:28:23.647Z,37.17
2023-07-08T08:33:31.428Z,36.87
2023-07-08T08:38:39.150Z,36.75
2023-07-08T08:43:49.661Z,36.34
2023-07-08T08:49:04.568Z,35.27
2023-07-08T08:54:12.402Z,34.95
2023-07-08T08:59:27.084Z,33.62
2023-07-08T09:04:39.256Z,33.98
2023-07-08T09:09:52.792Z,34.15
2023-07-08T09:15:01.420Z,34.00
2023-07-08T09:20:22.505Z,33.69
2023-07-08T09:25:34.487Z,33.79
2023-07-08T09:30:42.679Z,33.01
2023-07-08T09:35:51.127Z,33.91
2023-07-08T09:40:59.055Z,32.87
2023-07-08T09:46:07.360Z,32.64
2023-07-08T09:51:17.842Z,32.28
2023-07-08T09:56:27.718Z,32.02
2023-07-08T10:01:36.804Z,31.35
2023-07-08T10:06:49.353Z,31.04
2023-07-08T10:12:02.321Z,31.43
2023-07-08T10:17:17.969Z,31.77
2023-07-08T10:22:36.515Z,30.06
2023-07-08T10:27:56.317Z,29.32
2023-07-08T10:33:19.360Z,28.42
2023-07-08T10:38:41.650Z,28.63
2023-07-08T10:44:01.908Z,28.85
2023-07-08T10:49:31.113Z,28.88
2023-07-08T10:54:58.887Z,28.70
2023-07-08T11:00:22.145Z,28.45
2023-07-08T11:05:37.971Z,27.14
2023-07-08T11:10:59.742Z,27.15
2023-07-08T11:16:23.926Z,26.64
2023-07-08T11:21:38.117Z,25.75
2023-07-08T11:26:51.097Z,26.41
2023-07-08T11:31:59.976Z,26.97
2023-07-08T11:37:09.973Z,26.95
2023-07-08T11:42:27.209Z,26.38
2023-07-08T11:47:42.040Z,26.96
2023-07-08T11:52:57.947Z,27.23
2023-07-08T11:58:10.637Z,27.54
2023-07-08T12:03:31.209Z,27.76
2023-07-08T12:08:41.953Z,28.18
2023-07-08T12:13:49.757Z,29.27
2023-07-08T12:18:59.942Z,26.93
2023-07-08T12:24:09.603Z,28.11
2023-07-08T12:29:17.915Z,28.07
2023-07-08T12:34:27.945Z,26.92
2023-07-08T12:39:37.523Z,26.64
2023-07-08T12:44:45.558Z,26.63
2023-07-08T12:49:54.825Z,26.40
2023-07-08T12:55:02.919Z,25.91
2023-07-08T13:00:17.084Z,25.88
2023-07-08T13:05:26.189Z,25.34
2023-07-08T13:10:38.102Z,25.52
2023-07-08T13:15:46.814Z,25.63
2023-07-08T13:20:56.504Z,25.35
2023-07-08T13:26:14.326Z,25.89
2023-07-08T13:31:25.557Z,25.91
2023-07-08T13:36:37.117Z,25.01
2023-07-08T13:41:47.227Z,25.70
2023-07-08T13:47:00.021Z,25.74
2023-07-08T13:52:19.715Z,25.12
2023-07-08T13:57:34.556Z,25.35
2023-07-08T14:02:47.102Z,25.26
2023-07-08T14:07:55.333Z,25.47
2023-07-08T14:13:03.595Z,25.46
2023-07-08T14:18:14.269Z,24.83
2023-07-08T14:23:22.159Z,25.18
2023-07-08T14:28:30.005Z,24.62
2023-07-08T14:33:38.551Z,24.71
2023-07-08T14:38:47.236Z,25.26
2023-07-08T14:43:56.610Z,24.96
2023-07-08T14:49:11.265Z,25.31
2023-07-08T14:54:19.616Z,25.40
2023-07-08T14:59:30.990Z,25.19
2023-07-08T15:04:39.293Z,25.23
2023-07-08T15:09:48.511Z,25.32
2023-07-08T15:14:57.286Z,25.66
2023-07-08T15:20:16.074Z,25.53
2023-07-08T15:25:24.730Z,26.10
2023-07-08T15:30:33.805Z,25.91
2023-07-08T15:35:42.096Z,26.30
2023-07-08T15:40:52.442Z,26.45
2023-07-08T15:46:03.609Z,25.94
2023-07-08T15:51:15.312Z,26.23
2023-07-08T15:56:24.912Z,26.43
2023-07-08T16:01:33.930Z,26.46
2023-07-08T16:06:42.606Z,25.99
2023-07-08T16:11:51.723Z,26.56
2023-07-08T16:17:00.704Z,26.84
2023-07-08T16:22:10.745Z,27.17
2023-07-08T16:27:19.079Z,27.94
2023-07-08T16:32:28.737Z,28.02
2023-07-08T16:37:37.086Z,27.91
2023-07-08T16:42:57.120Z,28.17
2023-07-08T16:48:05.570Z,28.20
2023-07-08T16:53:15.608Z,28.69
2023-07-08T16:58:23.898Z,29.30
2023-07-08T17:03:33.960Z,28.90
2023-07-08T17:08:42.423Z,29.21
2023-07-08T17:13:50.862Z,30.06
2023-07-08T17:19:00.576Z,30.00
2023-07-08T17:24:14.566Z,30.38
2023-07-08T17:29:26.041Z,31.09
2023-07-08T17:34:37.495Z,32.14
2023-07-08T17:39:46.248Z,34.12
2023-07-08T17:44:54.976Z,34.35
2023-07-08T17:50:03.359Z,36.08
2023-07-08T17:55:12.614Z,35.52
2023-07-08T18:00:31.764Z,37.22
2023-07-08T18:05:40.173Z,37.89
2023-07-08T18:10:48.902Z,38.64
2023-07-08T18:15:57.758Z,40.56
2023-07-08T18:21:13.867Z,41.67
2023-07-08T18:26:24.100Z,44.24
2023-07-08T18:31:36.334Z,45.43
2023-07-08T18:36:45.364Z,46.36
2023-07-08T18:41:53.697Z,48.47
2023-07-08T18:47:05.225Z,51.29
2023-07-08T18:52:14.171Z,51.79
2023-07-08T18:57:22.621Z,52.73
2023-07-08T19:02:38.676Z,51.35
2023-07-08T19:07:47.642Z,51.93
2023-07-08T19:12:56.150Z,51.84
2023-07-08T19:18:05.690Z,53.14
2023-07-08T19:23:18.375Z,55.58
2023-07-08T19:28:26.787Z,56.68
2023-07-08T19:33:38.003Z,57.32
2023-07-08T19:38:46.656Z,57.78
2023-07-08T19:43:56.123Z,57.29
2023-07-08T19:49:04.789Z,57.70
2023-07-08T19:54:13.456Z,57.98
2023-07-08T19:59:22.154Z,58.22
2023-07-08T20:04:32.245Z,58.07
2023-07-08T20:09:42.162Z,56.38
2023-07-08T20:14:50.922Z,57.07
2023-07-08T20:19:59.532Z,56.91
2023-07-08T20:25:10.377Z,58.63
2023-07-08T20:30:24.936Z,59.75
2023-07-08T20:35:35.878Z,60.36
2023-07-08T20:40:44.356Z,60.77
2023-07-08T20:45:56.106Z,61.26
2023-07-08T20:51:05.379Z,61.15
2023-07-08T20:56:19.635Z,69.67
2023-07-08T21:01:32.021Z,61.55
2023-07-08T21:06:40.791Z,54.70
2023-07-08T21:11:49.220Z,56.97
2023-07-08T21:16:58.077Z,58.30
2023-07-08T21:22:07.213Z,59.13
2023-07-08T21:27:24.532Z,59.88
2023-07-08T21:32:33.017Z,60.39
2023-07-08T21:37:51.988Z,60.69
2023-07-08T21:43:00.551Z,61.52
2023-07-08T21:48:11.735Z,71.59
2023-07-08T21:53:22.968Z,62.32
2023-07-08T21:58:32.146Z,54.72
2023-07-08T22:03:40.590Z,56.68
2023-07-08T22:08:49.367Z,58.74
2023-07-08T22:13:59.057Z,59.02
2023-07-08T22:19:07.578Z,60.42
2023-07-08T22:24:16.450Z,61.26
2023-07-08T22:29:24.814Z,69.68
2023-07-08T22:34:33.161Z,61.22
2023-07-08T22:39:41.977Z,55.10
2023-07-08T22:44:50.277Z,57.24
2023-07-08T22:49:59.285Z,59.11
2023-07-08T22:55:15.843Z,60.53
2023-07-08T23:00:26.498Z,61.77
2023-07-08T23:05:36.894Z,70.38
2023-07-08T23:10:46.134Z,59.98
2023-07-08T23:15:54.914Z,55.05
2023-07-08T23:21:04.002Z,57.71
2023-07-08T23:26:16.666Z,60.05
2023-07-08T23:31:26.029Z,61.23
2023-07-08T23:36:37.235Z,65.20
2023-07-08T23:41:45.754Z,65.88
2023-07-08T23:46:56.623Z,56.47
2023-07-08T23:52:05.593Z,58.29
2023-07-08T23:57:18.190Z,59.19
